Time;durP1;ratioP1;P1;durP2;ratioP2;P2;SDS_P1;SDS_P2;PMS_P1;PMS_P2;Temp;Humidity;BMP_temperature;BMP_pressure;BME280_temperature;BME280_humidity;BME280_pressure;Samples;Min_cycle;Max_cycle;Signal;HPM_P1;HPM_P2
2021/10/09 00:01:28;;;;;;;37.60;20.70;;;5.20;94.30;;;;;;5076036;28;20390;-70
2021/10/09 00:03:54;;;;;;;36.05;20.08;;;5.30;94.90;;;;;;5071321;28;20383;-70
2021/10/09 00:06:23;;;;;;;39.67;20.77;;;5.20;95.40;;;;;;5071058;28;20440;-70
2021/10/09 00:08:48;;;;;;;33.35;19.48;;;5.20;95.00;;;;;;5076943;28;20025;-70
2021/10/09 00:11:20;;;;;;;30.17;17.92;;;5.10;94.90;;;;;;5077787;28;20032;-70
2021/10/09 00:13:46;;;;;;;33.50;19.15;;;5.10;95.00;;;;;;5077699;28;20035;-70
2021/10/09 00:16:12;;;;;;;34.50;19.27;;;5.00;94.70;;;;;;5076616;28;20021;-69
2021/10/09 00:18:38;;;;;;;42.92;21.98;;;5.10;94.60;;;;;;5076591;28;20041;-69
2021/10/09 00:21:07;;;;;;;36.00;20.85;;;5.00;94.60;;;;;;5078213;28;20294;-69
2021/10/09 00:23:32;;;;;;;35.70;19.25;;;5.00;94.20;;;;;;5075804;28;20039;-70
2021/10/09 00:25:58;;;;;;;32.60;18.15;;;5.00;94.80;;;;;;5076742;28;20024;-71
2021/10/09 00:28:24;;;;;;;41.28;18.98;;;5.00;94.80;;;;;;5074890;28;20036;-70
2021/10/09 00:30:50;;;;;;;40.65;21.10;;;4.90;95.00;;;;;;5077376;28;20108;-71
2021/10/09 00:33:16;;;;;;;38.88;21.10;;;4.90;94.90;;;;;;5077267;28;20383;-70
2021/10/09 00:35:41;;;;;;;32.42;16.88;;;4.80;94.20;;;;;;5076808;28;20017;-70
2021/10/09 00:38:07;;;;;;;41.03;18.35;;;4.90;93.90;;;;;;5075665;28;20020;-71
2021/10/09 00:40:33;;;;;;;30.42;16.98;;;4.90;94.10;;;;;;5077630;28;20032;-70
2021/10/09 00:42:59;;;;;;;32.83;18.20;;;4.90;94.60;;;;;;5075605;28;20037;-70
2021/10/09 00:45:24;;;;;;;30.92;17.42;;;5.10;93.60;;;;;;5074757;28;20496;-71
2021/10/09 00:47:51;;;;;;;27.33;16.75;;;5.10;93.70;;;;;;5067597;28;20024;-70
2021/10/09 00:50:17;;;;;;;32.10;17.63;;;5.10;94.40;;;;;;5078039;28;20329;-71
2021/10/09 00:52:44;;;;;;;32.67;19.42;;;5.20;93.00;;;;;;5075942;28;20028;-70
2021/10/09 00:55:10;;;;;;;32.00;17.08;;;5.30;94.20;;;;;;5076682;28;20059;-70
2021/10/09 00:57:39;;;;;;;26.35;15.93;;;5.30;94.40;;;;;;5075718;28;20021;-71
2021/10/09 01:00:06;;;;;;;28.60;15.57;;;5.30;94.50;;;;;;5073014;28;20320;-70
2021/10/09 01:02:36;;;;;;;30.13;14.85;;;5.40;93.60;;;;;;5076723;28;20363;-70
2021/10/09 01:05:02;;;;;;;27.08;14.30;;;5.70;93.40;;;;;;5077380;28;20107;-71
2021/10/09 01:07:28;;;;;;;31.10;15.45;;;5.70;94.30;;;;;;5076563;28;20111;-70
2021/10/09 01:09:54;;;;;;;29.05;14.73;;;5.80;93.70;;;;;;5075703;28;20103;-70
2021/10/09 01:12:20;;;;;;;29.75;16.30;;;5.90;95.10;;;;;;5076595;28;20321;-70
2021/10/09 01:14:46;;;;;;;30.17;16.95;;;6.00;95.40;;;;;;5075877;28;20032;-69
2021/10/09 01:17:13;;;;;;;30.58;16.45;;;5.90;95.80;;;;;;5068377;28;20047;-69
2021/10/09 01:19:40;;;;;;;30.27;15.20;;;6.00;95.10;;;;;;5075288;28;20029;-70
2021/10/09 01:22:06;;;;;;;29.05;15.75;;;6.10;96.10;;;;;;5076909;28;20036;-69
2021/10/09 01:24:32;;;;;;;27.05;16.30;;;6.20;96.40;;;;;;5069687;28;20439;-70
2021/10/09 01:26:59;;;;;;;29.23;16.33;;;6.10;97.00;;;;;;5070053;28;20024;-70
2021/10/09 01:29:25;;;;;;;26.77;14.82;;;6.00;97.20;;;;;;5072287;28;20044;-71
2021/10/09 01:31:51;;;;;;;24.98;15.65;;;6.10;96.90;;;;;;5076022;28;20028;-70
2021/10/09 01:34:25;;;;;;;27.50;15.23;;;6.00;97.30;;;;;;5076826;28;20031;-71
2021/10/09 01:36:51;;;;;;;33.88;15.52;;;6.10;96.90;;;;;;5069572;28;20036;-70
2021/10/09 01:39:16;;;;;;;31.70;16.02;;;6.20;97.30;;;;;;5071242;28;20112;-70
2021/10/09 01:41:45;;;;;;;30.30;16.08;;;6.30;97.80;;;;;;5070753;28;20023;-70
2021/10/09 01:44:11;;;;;;;26.08;15.77;;;6.30;98.00;;;;;;5067285;28;20021;-73
2021/10/09 01:46:37;;;;;;;25.30;14.82;;;6.20;98.00;;;;;;5069635;28;20029;-70
2021/10/09 01:49:05;;;;;;;29.02;15.52;;;6.10;98.00;;;;;;5075656;28;20455;-69
2021/10/09 01:51:31;;;;;;;25.25;15.00;;;5.90;98.00;;;;;;5076489;28;20044;-69
2021/10/09 01:53:57;;;;;;;30.27;16.02;;;5.80;97.80;;;;;;5074889;28;20029;-70
2021/10/09 01:56:23;;;;;;;30.17;17.92;;;5.80;98.00;;;;;;5075941;28;20051;-70
2021/10/09 01:58:49;;;;;;;30.67;17.60;;;5.60;98.00;;;;;;5070953;28;20060;-70
2021/10/09 02:01:15;;;;;;;35.85;19.52;;;5.60;98.00;;;;;;5072370;28;20048;-69
2021/10/09 02:03:41;;;;;;;35.33;19.40;;;5.40;98.00;;;;;;5060789;28;20028;-71
2021/10/09 02:06:07;;;;;;;41.28;23.13;;;5.20;98.00;;;;;;5075766;28;20021;-71
2021/10/09 02:08:33;;;;;;;35.22;20.48;;;5.10;97.30;;;;;;5074480;28;20071;-70
2021/10/09 02:11:06;;;;;;;39.67;22.10;;;5.00;96.80;;;;;;5075817;28;20409;-68
2021/10/09 02:13:40;;;;;;;37.03;19.60;;;4.90;97.40;;;;;;5075731;28;20379;-71
2021/10/09 02:16:48;;;;;;;44.90;22.70;;;4.90;96.70;;;;;;5075488;28;20025;-70
2021/10/09 02:27:11;;;;;;;30.60;16.63;;;5.30;94.60;;;;;;5075028;28;19925;-70
2021/10/09 02:29:37;;;;;;;33.15;18.08;;;5.30;95.00;;;;;;5074829;28;20016;-70
2021/10/09 02:32:06;;;;;;;37.20;21.20;;;5.40;94.30;;;;;;5075207;28;20396;-69
2021/10/09 02:34:35;;;;;;;38.15;20.90;;;5.70;93.50;;;;;;5074018;28;20417;-69
2021/10/09 02:37:00;;;;;;;31.95;18.30;;;5.50;95.60;;;;;;5067907;28;20028;-71
2021/10/09 02:39:26;;;;;;;37.42;21.60;;;5.40;95.30;;;;;;5074284;28;20324;-72
2021/10/09 02:41:52;;;;;;;34.67;20.00;;;5.30;95.70;;;;;;5075741;28;20029;-70
2021/10/09 02:44:21;;;;;;;40.58;21.73;;;5.10;96.10;;;;;;5075476;28;20056;-70
2021/10/09 02:46:47;;;;;;;45.60;22.33;;;4.90;96.30;;;;;;5074879;28;20287;-70
2021/10/09 02:49:13;;;;;;;34.63;19.00;;;4.70;95.90;;;;;;5075345;28;20027;-69
2021/10/09 02:51:38;;;;;;;37.67;19.73;;;4.70;94.40;;;;;;5075059;28;20020;-70
2021/10/09 02:54:04;;;;;;;36.92;20.67;;;4.80;94.90;;;;;;5073280;28;20361;-71
2021/10/09 02:56:30;;;;;;;35.80;19.75;;;4.80;95.30;;;;;;5075195;28;20409;-70
2021/10/09 02:58:55;;;;;;;41.53;21.77;;;4.70;95.40;;;;;;5072397;28;20025;-70
2021/10/09 03:01:24;;;;;;;45.28;21.92;;;4.60;95.40;;;;;;5073239;28;20363;-69
2021/10/09 03:03:52;;;;;;;31.67;18.17;;;4.50;95.20;;;;;;5074884;28;20029;-69
2021/10/09 03:06:18;;;;;;;36.13;21.83;;;4.50;94.20;;;;;;5072157;28;20017;-69
2021/10/09 03:08:52;;;;;;;46.03;23.55;;;4.50;95.00;;;;;;5073892;28;20024;-68
2021/10/09 03:11:18;;;;;;;39.53;20.60;;;4.40;94.50;;;;;;5074690;28;20351;-68
2021/10/09 03:13:44;;;;;;;38.20;20.70;;;4.40;94.30;;;;;;5074956;28;20032;-70
2021/10/09 03:16:09;;;;;;;38.78;21.92;;;4.60;92.50;;;;;;5074762;28;20106;-68
2021/10/09 03:18:38;;;;;;;43.28;23.55;;;4.80;92.60;;;;;;5067396;28;20044;-71
2021/10/09 03:21:13;;;;;;;38.55;21.10;;;4.80;94.00;;;;;;5073759;28;20024;-71
2021/10/09 03:23:38;;;;;;;41.00;22.48;;;4.60;93.90;;;;;;5073593;28;20502;-70
2021/10/09 03:26:07;;;;;;;39.10;23.17;;;4.70;93.10;;;;;;5074648;28;20048;-71
2021/10/09 03:28:32;;;;;;;39.92;22.88;;;4.70;93.70;;;;;;5074602;28;20040;-70
2021/10/09 03:30:58;;;;;;;41.80;20.95;;;4.70;92.60;;;;;;5072363;28;20085;-70
2021/10/09 03:33:24;;;;;;;44.00;23.70;;;4.80;92.70;;;;;;5074748;28;20029;-70
2021/10/09 03:35:49;;;;;;;37.80;21.98;;;4.80;93.30;;;;;;5074713;28;20417;-70
2021/10/09 03:38:15;;;;;;;40.33;23.08;;;4.70;93.70;;;;;;5070053;28;20020;-70
2021/10/09 03:40:44;;;;;;;41.72;23.63;;;4.70;92.50;;;;;;5073177;28;20048;-71
2021/10/09 03:43:16;;;;;;;44.83;24.50;;;4.70;92.10;;;;;;5072408;28;20094;-70
2021/10/09 03:48:24;;;;;;;44.83;23.00;;;4.90;92.10;;;;;;5073156;28;20036;-70
2021/10/09 03:53:35;;;;;;;;;;;5.50;88.30;;;;;;5073596;28;20087;-70
2021/10/09 03:56:01;;;;;;;40.03;22.50;;;6.10;88.60;;;;;;5074424;28;19908;-69
2021/10/09 03:58:27;;;;;;;37.83;21.83;;;6.30;90.40;;;;;;5068903;28;20025;-70
2021/10/09 04:00:53;;;;;;;35.33;22.38;;;6.40;91.60;;;;;;5068768;28;20020;-70
2021/10/09 04:03:19;;;;;;;41.83;20.80;;;6.40;92.50;;;;;;5066287;28;20402;-70
2021/10/09 04:05:45;;;;;;;50.63;21.67;;;6.30;93.20;;;;;;5069421;28;20024;-70
2021/10/09 04:08:13;;;;;;;33.08;19.15;;;6.30;92.40;;;;;;5071051;28;20032;-69
2021/10/09 04:10:40;;;;;;;32.90;19.05;;;6.40;93.20;;;;;;5073392;28;20032;-70
2021/10/09 04:13:05;;;;;;;35.88;19.23;;;6.50;93.80;;;;;;5071706;28;20028;-71
2021/10/09 04:15:31;;;;;;;38.63;19.95;;;6.60;94.70;;;;;;5073907;28;20089;-70
2021/10/09 04:17:57;;;;;;;35.88;18.70;;;6.60;95.60;;;;;;5073567;28;20429;-70
2021/10/09 04:20:23;;;;;;;31.70;19.00;;;6.60;95.30;;;;;;5074198;28;20030;-69
2021/10/09 04:22:50;;;;;;;33.10;18.90;;;6.70;96.20;;;;;;5072250;28;20299;-69
2021/10/09 04:25:15;;;;;;;34.95;20.23;;;6.80;96.50;;;;;;5072868;28;20028;-70
2021/10/09 04:27:41;;;;;;;33.40;19.55;;;6.80;97.50;;;;;;5072851;28;20452;-70
2021/10/09 04:30:10;;;;;;;35.72;20.48;;;6.70;97.20;;;;;;5073955;28;20453;-70
2021/10/09 04:32:39;;;;;;;33.03;19.33;;;6.80;97.90;;;;;;5076993;28;20035;-70
2021/10/09 04:35:06;;;;;;;35.42;19.08;;;6.70;97.90;;;;;;5077141;28;20021;-71
2021/10/09 04:37:32;;;;;;;32.60;20.20;;;6.70;98.00;;;;;;5070535;28;20021;-71
2021/10/09 04:39:57;;;;;;;32.97;20.08;;;6.70;98.00;;;;;;5068845;28;20029;-70
2021/10/09 04:42:23;;;;;;;30.63;19.23;;;6.70;98.00;;;;;;5077041;28;20036;-71
2021/10/09 04:44:49;;;;;;;33.58;19.42;;;6.70;98.00;;;;;;5069580;28;20405;-71
2021/10/09 04:47:14;;;;;;;34.10;19.10;;;6.80;98.00;;;;;;5077240;28;20340;-70
2021/10/09 04:49:40;;;;;;;38.38;19.90;;;6.80;98.00;;;;;;5077200;28;20242;-68
2021/10/09 04:52:06;;;;;;;32.60;18.95;;;6.80;98.00;;;;;;5076912;28;20035;-70
2021/10/09 04:54:31;;;;;;;32.15;18.30;;;6.70;98.00;;;;;;5070323;28;20047;-69
2021/10/09 04:56:57;;;;;;;39.65;20.92;;;6.70;98.00;;;;;;5073422;28;20025;-70
2021/10/09 04:59:22;;;;;;;37.05;21.60;;;6.70;98.00;;;;;;5077071;28;20059;-70
2021/10/09 05:01:51;;;;;;;42.15;21.45;;;6.80;98.00;;;;;;5072934;28;20032;-70
2021/10/09 05:04:16;;;;;;;36.03;20.83;;;6.70;98.00;;;;;;5071111;28;20036;-70
2021/10/09 05:06:42;;;;;;;36.20;20.00;;;6.70;98.00;;;;;;5069819;28;20025;-70
2021/10/09 05:09:08;;;;;;;37.45;21.00;;;6.60;98.00;;;;;;5076227;28;20036;-69
2021/10/09 05:11:33;;;;;;;33.13;19.42;;;6.60;98.00;;;;;;5077040;28;20417;-70
2021/10/09 05:13:59;;;;;;;36.90;20.83;;;6.50;98.00;;;;;;5076648;28;20364;-70
2021/10/09 05:16:25;;;;;;;35.55;20.42;;;6.40;98.00;;;;;;5076166;28;20020;-70
2021/10/09 05:18:50;;;;;;;40.08;22.58;;;6.50;98.00;;;;;;5076846;28;20039;-70
2021/10/09 05:21:16;;;;;;;38.78;21.98;;;6.50;98.00;;;;;;5076427;28;20061;-70
2021/10/09 05:23:42;;;;;;;31.73;18.63;;;6.50;98.00;;;;;;5065550;28;20468;-70
2021/10/09 05:26:10;;;;;;;36.95;19.80;;;6.50;98.00;;;;;;5072760;28;20032;-70
2021/10/09 05:31:02;;;;;;;36.53;20.80;;;6.60;98.00;;;;;;5075799;28;20031;-70
2021/10/09 05:35:57;;;;;;;35.20;20.25;;;6.60;98.00;;;;;;5075227;28;20051;-69
2021/10/09 05:38:25;;;;;;;37.78;20.05;;;6.60;98.00;;;;;;5075317;28;20039;-70
2021/10/09 05:40:56;;;;;;;34.35;20.23;;;6.60;98.00;;;;;;5075842;28;20727;-69
2021/10/09 05:43:23;;;;;;;40.47;19.98;;;6.60;98.00;;;;;;5068005;28;20048;-70
2021/10/09 05:45:48;;;;;;;29.52;18.63;;;6.70;98.00;;;;;;5068215;28;20029;-70
2021/10/09 05:48:14;;;;;;;31.17;18.98;;;6.60;98.00;;;;;;5076070;28;20094;-70
2021/10/09 05:50:48;;;;;;;31.33;18.33;;;6.60;98.00;;;;;;5076094;28;20029;-69
2021/10/09 05:56:04;;;;;;;31.80;17.92;;;6.70;98.00;;;;;;5073119;28;20039;-71
2021/10/09 05:58:47;;;;;;;32.00;18.73;;;6.60;98.00;;;;;;5075819;28;20024;-69
2021/10/09 07:00:37;;;;;;;34.20;18.40;;;7.70;98.00;;;;;;5061099;28;20032;-70
2021/10/09 07:03:05;;;;;;;33.78;19.27;;;7.80;98.00;;;;;;5075818;28;20029;-70
2021/10/09 07:05:33;;;;;;;28.42;17.58;;;7.90;98.00;;;;;;5075023;28;20032;-71
2021/10/09 07:08:08;;;;;;;31.55;17.58;;;8.10;98.00;;;;;;5073932;28;20052;-71
2021/10/09 07:10:34;;;;;;;32.03;18.33;;;8.20;98.00;;;;;;5075076;28;20058;-70
2021/10/09 07:12:59;;;;;;;32.05;17.08;;;8.30;98.00;;;;;;5075573;28;20016;-70
2021/10/09 07:15:25;;;;;;;35.20;17.17;;;8.50;98.00;;;;;;5073944;28;20425;-71
2021/10/09 07:17:51;;;;;;;33.88;19.58;;;8.50;98.00;;;;;;5071632;28;20032;-70
2021/10/09 07:20:19;;;;;;;31.95;16.55;;;8.60;98.00;;;;;;5070866;28;20175;-70
2021/10/09 07:22:48;;;;;;;26.73;16.33;;;8.70;98.00;;;;;;5072716;28;20040;-70
2021/10/09 07:25:14;;;;;;;29.05;15.73;;;8.80;98.00;;;;;;5075366;28;20078;-71
2021/10/09 07:27:42;;;;;;;25.95;15.80;;;9.00;98.00;;;;;;5074299;28;20436;-70
2021/10/09 07:30:08;;;;;;;24.60;14.77;;;9.10;98.00;;;;;;5074136;28;20032;-70
2021/10/09 07:32:34;;;;;;;31.38;15.45;;;9.20;98.00;;;;;;5073255;28;20051;-70
2021/10/09 07:35:00;;;;;;;25.90;15.00;;;9.30;98.00;;;;;;5069985;28;20025;-70
2021/10/09 07:37:26;;;;;;;24.60;13.80;;;9.40;98.00;;;;;;5058653;28;20032;-70
2021/10/09 07:39:51;;;;;;;33.30;15.18;;;9.60;98.00;;;;;;5073739;28;20078;-70
2021/10/09 07:42:17;;;;;;;29.38;14.77;;;9.80;97.60;;;;;;5072216;28;20036;-70
2021/10/09 07:44:43;;;;;;;28.00;15.15;;;9.70;96.70;;;;;;5071214;28;20055;-71
2021/10/09 07:47:09;;;;;;;28.85;15.30;;;9.80;96.90;;;;;;5074557;28;20099;-69
2021/10/09 07:49:35;;;;;;;20.60;13.63;;;9.90;96.40;;;;;;5067584;28;20016;-70
2021/10/09 07:52:01;;;;;;;24.27;13.38;;;10.00;95.50;;;;;;5068848;28;20024;-70
2021/10/09 07:54:26;;;;;;;21.40;13.10;;;10.10;95.30;;;;;;5070389;28;20197;-70
2021/10/09 07:56:52;;;;;;;26.50;13.15;;;10.30;95.80;;;;;;5072461;28;20478;-70
2021/10/09 07:59:20;;;;;;;28.70;13.05;;;10.50;95.30;;;;;;5069587;28;20027;-70
2021/10/09 08:01:46;;;;;;;23.90;11.80;;;11.00;93.70;;;;;;5067073;28;20025;-71
2021/10/09 08:04:15;;;;;;;19.63;11.00;;;11.80;91.20;;;;;;5072891;28;20103;-70
2021/10/09 08:06:40;;;;;;;20.90;10.50;;;12.80;86.60;;;;;;5078446;28;20032;-70
2021/10/09 08:09:06;;;;;;;23.73;11.30;;;13.60;85.00;;;;;;5074196;28;20028;-71
2021/10/09 08:11:32;;;;;;;21.30;10.20;;;14.20;82.00;;;;;;5074244;28;20025;-70
2021/10/09 08:13:58;;;;;;;19.02;10.35;;;14.50;80.10;;;;;;5077701;28;20028;-71
2021/10/09 08:16:23;;;;;;;19.67;10.65;;;14.60;79.40;;;;;;5076036;28;20325;-71
2021/10/09 08:18:49;;;;;;;15.70;9.60;;;14.70;78.90;;;;;;5074142;28;20044;-70
2021/10/09 08:21:16;;;;;;;21.15;10.38;;;15.00;79.10;;;;;;5071864;28;20021;-71
2021/10/09 08:23:55;;;;;;;18.17;10.48;;;15.40;77.40;;;;;;5075301;28;20029;-71
2021/10/09 08:38:44;;;;;;;17.50;9.70;;;15.60;76.20;;;;;;5077432;28;20039;-71
2021/10/09 08:40:05;;;;;;;17.83;9.18;;;16.20;74.30;;;;;;5076938;28;20029;-71
2021/10/09 08:42:32;;;;;;;16.60;9.30;;;16.60;73.70;;;;;;5071066;28;20028;-71
2021/10/09 08:44:58;;;;;;;17.40;8.80;;;17.00;73.00;;;;;;5077554;28;20409;-71
2021/10/09 08:47:23;;;;;;;15.98;8.68;;;17.90;72.00;;;;;;5078215;28;20029;-69
2021/10/09 08:49:49;;;;;;;37.33;20.35;;;18.40;71.20;;;;;;5069836;28;20021;-71
2021/10/09 08:52:22;;;;;;;44.05;27.27;;;19.10;70.00;;;;;;5075926;28;20058;-70
2021/10/09 08:54:48;;;;;;;36.22;21.05;;;20.00;68.50;;;;;;5076327;28;20028;-71
2021/10/09 08:57:19;;;;;;;17.02;8.88;;;20.50;65.90;;;;;;5072348;28;20035;-70
2021/10/09 09:00:04;;;;;;;16.40;8.70;;;20.50;64.40;;;;;;5058378;28;20474;-70
2021/10/09 09:02:35;;;;;;;15.45;8.32;;;20.40;64.50;;;;;;5063755;28;20068;-70
2021/10/09 09:41:01;;;;;;;15.13;7.72;;;19.70;64.80;;;;;;5075716;28;20390;-71
2021/10/09 09:43:38;;;;;;;15.07;7.15;;;19.50;63.40;;;;;;5076489;28;20104;-70
2021/10/09 09:46:15;;;;;;;12.63;6.97;;;19.90;65.70;;;;;;5076526;28;20024;-71
2021/10/09 09:48:43;;;;;;;14.77;7.60;;;19.40;65.50;;;;;;5075049;28;20025;-71
2021/10/09 09:51:11;;;;;;;11.90;7.63;;;19.70;63.20;;;;;;5071083;28;20032;-71
2021/10/09 09:53:41;;;;;;;13.85;7.80;;;19.30;64.10;;;;;;5065775;28;20115;-70
2021/10/09 09:56:08;;;;;;;11.90;6.93;;;18.80;67.00;;;;;;5070689;28;20031;-71
2021/10/09 09:58:40;;;;;;;15.23;7.25;;;19.20;64.70;;;;;;5062670;28;20024;-71
2021/10/09 10:01:08;;;;;;;13.27;7.05;;;19.70;64.30;;;;;;5065227;28;20031;-71
2021/10/09 10:03:35;;;;;;;13.50;7.20;;;19.50;64.10;;;;;;5075902;28;20036;-71
2021/10/09 10:06:04;;;;;;;11.23;7.00;;;19.70;65.80;;;;;;5075270;28;20032;-71
2021/10/09 10:08:31;;;;;;;11.40;6.63;;;19.90;65.30;;;;;;5074136;28;20028;-71
2021/10/09 10:10:58;;;;;;;10.73;6.63;;;20.00;64.90;;;;;;5075003;28;20044;-71
2021/10/09 10:13:26;;;;;;;11.55;6.53;;;20.30;62.80;;;;;;5072990;28;20063;-71
2021/10/09 10:15:53;;;;;;;10.30;6.13;;;20.40;62.00;;;;;;5072965;28;20029;-71
2021/10/09 10:18:44;;;;;;;9.50;5.60;;;20.00;62.20;;;;;;5075408;28;20044;-71
2021/10/09 10:21:11;;;;;;;13.00;6.43;;;20.40;62.30;;;;;;5072931;28;20062;-70
2021/10/09 10:23:41;;;;;;;11.90;6.47;;;20.80;62.30;;;;;;5074824;28;20024;-72
2021/10/09 10:26:19;;;;;;;8.18;5.72;;;20.80;62.10;;;;;;5067785;28;20031;-71
2021/10/09 10:29:04;;;;;;;11.57;6.13;;;20.80;60.90;;;;;;5073480;28;20064;-71
2021/10/09 10:31:33;;;;;;;12.68;6.10;;;21.30;58.90;;;;;;5074031;28;20042;-71
2021/10/09 10:34:21;;;;;;;10.57;6.15;;;20.90;60.90;;;;;;5074558;28;20052;-71
2021/10/09 10:36:47;;;;;;;12.00;6.30;;;20.80;60.50;;;;;;5076098;28;20462;-71
2021/10/09 10:39:20;;;;;;;9.80;6.15;;;20.10;60.10;;;;;;5074258;28;20103;-71
2021/10/09 10:41:59;;;;;;;11.35;6.03;;;20.10;61.30;;;;;;5075651;28;20024;-71
2021/10/09 10:48:02;;;;;;;11.82;5.57;;;20.60;63.10;;;;;;5075831;28;20090;-70
2021/10/09 10:53:13;;;;;;;13.35;5.55;;;20.80;61.60;;;;;;5074605;28;20113;-71
2021/10/09 10:56:03;;;;;;;13.65;5.63;;;21.00;58.60;;;;;;5074049;28;20020;-71
2021/10/09 10:58:29;;;;;;;10.52;5.57;;;19.80;59.80;;;;;;5062000;28;20024;-70
2021/10/09 11:01:23;;;;;;;11.85;5.47;;;19.50;62.00;;;;;;5062088;28;20020;-70
2021/10/09 11:03:52;;;;;;;9.85;5.72;;;20.00;61.60;;;;;;5075195;28;20033;-70
2021/10/09 11:06:20;;;;;;;10.65;5.63;;;20.50;61.00;;;;;;5075676;28;20036;-71
2021/10/09 11:08:47;;;;;;;9.80;5.13;;;20.70;60.20;;;;;;5073439;28;20416;-71
2021/10/09 11:11:13;;;;;;;9.88;5.70;;;20.70;60.10;;;;;;5075042;28;20036;-71
2021/10/09 11:13:40;;;;;;;10.65;5.40;;;21.10;59.40;;;;;;5074608;28;20028;-71
2021/10/09 11:16:06;;;;;;;11.55;5.15;;;21.30;60.20;;;;;;5074173;28;20421;-71
2021/10/09 11:18:53;;;;;;;9.85;5.15;;;21.00;56.70;;;;;;5072946;28;20048;-71
2021/10/09 11:21:20;;;;;;;11.13;5.03;;;20.20;59.40;;;;;;5074524;28;20050;-71
2021/10/09 11:23:54;;;;;;;10.20;5.50;;;20.30;61.00;;;;;;5073587;28;20029;-71
2021/10/09 11:26:22;;;;;;;10.20;4.82;;;20.60;59.40;;;;;;5069313;28;20120;-70
2021/10/09 11:29:02;;;;;;;8.38;4.72;;;20.80;59.50;;;;;;5072973;28;20599;-71
2021/10/09 11:31:28;;;;;;;9.02;4.82;;;21.00;58.00;;;;;;5075689;28;20025;-71
2021/10/09 11:34:00;;;;;;;10.77;4.78;;;21.00;59.10;;;;;;5074032;28;20020;-70
2021/10/09 11:36:26;;;;;;;10.07;4.60;;;21.00;57.90;;;;;;5075308;28;20017;-70
2021/10/09 11:39:11;;;;;;;10.90;4.63;;;20.80;58.50;;;;;;5076960;28;20028;-70
2021/10/09 11:41:39;;;;;;;11.60;5.20;;;20.20;59.30;;;;;;5062198;28;20378;-70
2021/10/09 11:44:22;;;;;;;9.32;5.55;;;20.60;59.20;;;;;;5072053;28;20024;-70
2021/10/09 11:56:08;;;;;;;10.20;5.20;;;20.80;57.80;;;;;;5080324;28;20028;-68
2021/10/09 11:58:44;;;;;;;11.57;5.40;;;20.70;60.00;;;;;;5080901;28;20325;-68
2021/10/09 12:01:22;;;;;;;10.55;5.65;;;20.50;57.90;;;;;;5079414;28;20024;-69
2021/10/09 12:03:48;;;;;;;10.02;5.20;;;20.50;58.00;;;;;;5080750;28;20081;-69
2021/10/09 12:06:13;;;;;;;14.77;6.85;;;19.70;57.60;;;;;;5081386;28;20425;-71
2021/10/09 12:08:58;;;;;;;11.25;5.45;;;19.70;60.90;;;;;;5080689;28;20036;-70
2021/10/09 12:11:35;;;;;;;52.05;6.57;;;19.90;59.50;;;;;;5080989;28;20036;-71
2021/10/09 12:14:05;;;;;;;10.20;4.72;;;19.40;59.00;;;;;;5081229;28;20032;-70
2021/10/09 12:16:43;;;;;;;12.45;5.40;;;19.50;62.90;;;;;;5066349;28;20107;-70
2021/10/09 12:19:14;;;;;;;10.82;5.07;;;20.10;61.60;;;;;;5064246;28;20032;-70
2021/10/09 12:21:51;;;;;;;9.15;4.90;;;20.20;60.20;;;;;;5072650;28;20111;-70
2021/10/09 12:24:23;;;;;;;9.65;5.28;;;19.80;59.90;;;;;;5079777;28;20115;-71
2021/10/09 12:27:02;;;;;;;11.48;5.43;;;19.90;59.80;;;;;;5072920;28;20024;-70
2021/10/09 12:29:33;;;;;;;11.45;5.00;;;19.80;61.20;;;;;;5081637;28;20099;-70
2021/10/09 12:32:16;;;;;;;9.20;4.63;;;19.90;61.30;;;;;;5080930;28;20025;-70
2021/10/09 12:34:42;;;;;;;10.10;5.63;;;20.00;62.50;;;;;;5079422;28;20024;-71
2021/10/09 12:37:26;;;;;;;9.30;5.20;;;20.00;61.40;;;;;;5081632;28;20105;-70
2021/10/09 12:40:11;;;;;;;10.27;5.22;;;20.10;62.30;;;;;;5078983;28;20021;-71
2021/10/09 12:42:37;;;;;;;8.95;4.68;;;20.10;60.80;;;;;;5080752;28;20051;-71
2021/10/09 12:45:04;;;;;;;10.70;5.53;;;19.60;58.80;;;;;;5077493;28;20094;-70
2021/10/09 12:47:30;;;;;;;12.30;5.10;;;19.20;60.00;;;;;;5081566;28;20520;-70
2021/10/09 12:49:55;;;;;;;10.40;5.32;;;19.00;61.60;;;;;;5078198;28;20155;-70
2021/10/09 12:52:21;;;;;;;10.45;5.72;;;19.00;62.60;;;;;;5077597;28;20039;-71
2021/10/09 12:54:47;;;;;;;12.23;5.70;;;19.10;62.60;;;;;;5076486;28;20031;-70
2021/10/09 12:57:12;;;;;;;10.02;6.13;;;19.10;62.10;;;;;;5076194;28;20043;-70
2021/10/09 12:59:38;;;;;;;11.15;5.85;;;19.10;60.70;;;;;;5078089;28;20027;-70
2021/10/09 13:02:04;;;;;;;15.52;5.85;;;18.80;61.70;;;;;;5077578;28;20290;-70
2021/10/09 13:04:30;;;;;;;10.10;5.80;;;18.60;62.10;;;;;;5077399;28;20032;-69
2021/10/09 13:06:56;;;;;;;8.48;5.32;;;18.70;62.90;;;;;;5077322;28;20031;-70
2021/10/09 13:09:22;;;;;;;11.35;5.93;;;18.60;63.30;;;;;;5061833;28;20032;-70
2021/10/09 13:11:56;;;;;;;11.30;5.72;;;18.40;64.90;;;;;;5069287;28;20032;-70
2021/10/09 13:14:21;;;;;;;10.98;5.03;;;18.30;63.50;;;;;;5075836;28;20425;-70
2021/10/09 13:16:47;;;;;;;10.77;5.50;;;18.00;64.10;;;;;;5076969;28;20029;-70
2021/10/09 13:19:15;;;;;;;12.00;5.70;;;17.90;63.70;;;;;;5075101;28;20044;-70
2021/10/09 13:21:44;;;;;;;12.25;5.55;;;17.80;63.80;;;;;;5077009;28;20107;-70
2021/10/09 13:24:10;;;;;;;10.32;6.00;;;17.80;63.50;;;;;;5075955;28;20020;-71
2021/10/09 13:26:36;;;;;;;12.23;5.75;;;17.80;63.70;;;;;;5072383;28;20411;-70
2021/10/09 13:29:03;;;;;;;11.35;6.38;;;17.90;62.90;;;;;;5073962;28;20052;-70
2021/10/09 13:31:29;;;;;;;10.32;5.80;;;17.90;63.30;;;;;;5076394;28;20028;-71
2021/10/09 13:33:56;;;;;;;11.35;5.45;;;18.00;63.80;;;;;;5076052;28;20031;-70
2021/10/09 13:36:26;;;;;;;11.65;6.07;;;18.00;64.60;;;;;;5077503;28;20039;-70
2021/10/09 13:38:53;;;;;;;11.25;6.13;;;18.20;65.80;;;;;;5075510;28;20107;-70
2021/10/09 13:41:18;;;;;;;13.02;6.45;;;18.20;64.10;;;;;;5076754;28;20024;-70
2021/10/09 13:43:44;;;;;;;9.88;5.35;;;18.00;64.00;;;;;;5075873;28;20062;-69
2021/10/09 13:46:13;;;;;;;11.75;6.05;;;18.10;64.80;;;;;;5076040;28;20081;-70
2021/10/09 13:48:41;;;;;;;15.35;6.47;;;18.20;65.00;;;;;;5077201;28;20032;-70
2021/10/09 13:51:12;;;;;;;13.85;6.50;;;18.50;65.20;;;;;;5075038;28;20036;-69
2021/10/09 13:53:46;;;;;;;9.32;5.88;;;18.80;63.50;;;;;;5074359;28;20054;-70
2021/10/09 13:56:12;;;;;;;12.98;6.32;;;18.40;65.20;;;;;;5074134;28;20021;-70
2021/10/09 13:58:39;;;;;;;14.00;6.30;;;18.50;65.20;;;;;;5074611;28;20582;-70
2021/10/09 14:01:04;;;;;;;11.52;6.28;;;18.40;65.40;;;;;;5074492;28;20024;-70
2021/10/09 14:03:32;;;;;;;13.50;5.93;;;18.60;64.60;;;;;;5074725;28;20115;-69
2021/10/09 14:05:59;;;;;;;11.60;5.47;;;18.80;64.00;;;;;;5072071;28;20306;-71
2021/10/09 14:08:26;;;;;;;14.15;6.43;;;18.60;64.70;;;;;;5075705;28;20020;-71
2021/10/09 14:10:56;;;;;;;11.18;5.80;;;18.70;65.70;;;;;;5075960;28;20125;-71
2021/10/09 14:13:23;;;;;;;10.48;5.78;;;18.90;64.20;;;;;;5076681;28;20051;-71
2021/10/09 14:15:52;;;;;;;12.10;5.63;;;19.00;65.20;;;;;;5076031;28;20035;-70
2021/10/09 14:18:18;;;;;;;12.10;5.75;;;19.00;61.00;;;;;;5076424;28;20044;-70
2021/10/09 14:20:49;;;;;;;12.30;5.45;;;18.70;64.40;;;;;;5057036;28;20058;-69
2021/10/09 14:23:15;;;;;;;11.55;5.43;;;18.80;63.50;;;;;;5066009;28;20507;-70
2021/10/09 14:25:42;;;;;;;9.90;6.10;;;18.60;62.80;;;;;;5076079;28;20042;-71
2021/10/09 14:28:09;;;;;;;9.13;5.60;;;18.60;62.90;;;;;;5075171;28;20384;-70
2021/10/09 14:30:35;;;;;;;11.63;5.70;;;18.50;62.80;;;;;;5075901;28;20290;-70
2021/10/09 14:33:04;;;;;;;10.40;6.28;;;18.50;64.20;;;;;;5075352;28;20029;-71
2021/10/09 14:35:29;;;;;;;14.15;5.90;;;18.40;62.90;;;;;;5074715;28;20029;-71
2021/10/09 14:37:55;;;;;;;11.40;6.20;;;18.30;64.90;;;;;;5074226;28;20047;-70
2021/10/09 14:40:21;;;;;;;12.07;6.30;;;18.30;66.00;;;;;;5075718;28;20078;-71
2021/10/09 14:42:47;;;;;;;13.32;6.43;;;18.50;65.20;;;;;;5075756;28;20417;-69
2021/10/09 14:45:17;;;;;;;10.73;6.55;;;18.70;63.90;;;;;;5076053;28;20024;-69
2021/10/09 15:20:45;;;;;;;10.43;5.95;;;19.30;63.00;;;;;;5001275;28;20034;-70
2021/10/09 15:23:10;;;;;;;10.27;5.90;;;19.30;62.70;;;;;;5042830;28;20457;-70
2021/10/09 15:25:36;;;;;;;12.02;6.90;;;19.40;62.70;;;;;;5047180;28;20017;-69
2021/10/09 15:28:01;;;;;;;13.88;6.50;;;19.20;62.40;;;;;;5046078;28;20063;-69
2021/10/09 15:30:27;;;;;;;10.45;6.38;;;18.70;63.30;;;;;;5028703;28;20029;-70
2021/10/09 15:32:53;;;;;;;11.07;6.63;;;18.60;64.20;;;;;;5048988;28;20033;-70
2021/10/09 15:35:18;;;;;;;10.15;6.13;;;18.70;63.80;;;;;;5051084;28;20036;-70
2021/10/09 15:37:44;;;;;;;14.13;6.90;;;18.90;64.10;;;;;;5027476;28;20025;-69
2021/10/09 15:40:12;;;;;;;12.57;7.05;;;19.30;62.90;;;;;;5034703;28;20056;-70